Huvudsida
METAR-TAF:

METAR-TAF

Flygplatser :

Mehrabads flygplats

Teheran, Iran

latitud: 35-41N, longitud: 051-21E, höjd: 1204 m

Aktuellt väderrapport

Denna rapport gjordes för 23 minuter sedan, klockan 07:00 UTC
Vind 4 kt från syd/sydost
Temperatur 34°C
Fuktighet 13%
Tryck 1008 hPa
Sikt 10 km eller mer
Inga moln under 1 500 m eller inga cumulonimbus

METAR: OIII 190700Z 15004KT CAVOK 34/02 Q1008 A2977 NOSIG

Tid: 11:53 (07:23 UTC)

Väderprognos

Denna rapport gjordes för 1 timme och 53 minuter sedan, klockan 05:30 UTC
Prognos gäller från 19 kl. 06 UTC till 20 kl. 12 UTC
Vind 8 kt från sydost
Sikt: 7000 m
Temporärt
från 19 kl. 16 UTC till 19 kl. 24 UTC
Vind 19 kt från nordväst

TAF: OIII 190530Z 1906/2012 14004MPS 7000 NSC TEMPO 1916/1924 32010MPS

Aktuella väderrapporter och prognoser från 4000 flygplatser (METAR- och TAF-rapporter).

De tillgängliga stationerna syns som gula och röda prickar på kartan.

För musen över prickarna för att se namnen på stationerna.

Klicka sedan för att få väderrapporter och prognoser.

För att ändra kartan: Klicka på de gröna knapparna med ett svart kors på för att zooma in; den gröna knappen med ett streck på för att zooma ut; eller på de gröna pilarna för angränsande kartor.


METAR-TAF: